<?xml version="1.0" encoding="UTF-8" standalone="no" ?>
<gpx xmlns="http://www.topografix.com/GPX/1/1" xmlns:xsi="http://www.w3.org/2001/XMLSchema-instance" xsi:schemaLocation="http://www.topografix.com/GPX/1/1 http://www.topografix.com/GPX/1/1/gpx.xsd" version="1.1" creator="VisuGPX - https://www.visugpx.com">
  <metadata>
    <name>10404837-J0 Hospitalet- col de l'albe</name>
  </metadata>
  <trk>
    <name><![CDATA[10404837-J0 Hospitalet- col de l'albe]]></name>
    <trkseg>
      <trkpt lat="42.58655" lon="1.7959">
        <ele>1445</ele>
        <time>2019-08-20T14:58:31Z</time>
      </trkpt>
      <trkpt lat="42.58856" lon="1.79354">
        <ele>1525</ele>
        <time>2019-08-20T15:02:04Z</time>
      </trkpt>
      <trkpt lat="42.59062" lon="1.79014">
        <ele>1629</ele>
        <time>2019-08-20T15:06:23Z</time>
      </trkpt>
      <trkpt lat="42.59116" lon="1.78771">
        <ele>1685</ele>
        <time>2019-08-20T15:08:53Z</time>
      </trkpt>
      <trkpt lat="42.59245" lon="1.78631">
        <ele>1769</ele>
        <time>2019-08-20T15:11:05Z</time>
      </trkpt>
      <trkpt lat="42.59446" lon="1.78735">
        <ele>1826</ele>
        <time>2019-08-20T15:13:57Z</time>
      </trkpt>
      <trkpt lat="42.59696" lon="1.78716">
        <ele>1913</ele>
        <time>2019-08-20T15:17:18Z</time>
      </trkpt>
      <trkpt lat="42.59786" lon="1.7851">
        <ele>1951</ele>
        <time>2019-08-20T15:19:39Z</time>
      </trkpt>
      <trkpt lat="42.59973" lon="1.7834">
        <ele>1972</ele>
        <time>2019-08-20T15:22:39Z</time>
      </trkpt>
      <trkpt lat="42.60179" lon="1.782">
        <ele>2010</ele>
        <time>2019-08-20T15:25:44Z</time>
      </trkpt>
      <trkpt lat="42.60291" lon="1.78085">
        <ele>2013</ele>
        <time>2019-08-20T15:27:36Z</time>
      </trkpt>
      <trkpt lat="42.60505" lon="1.77976">
        <ele>2033</ele>
        <time>2019-08-20T15:30:39Z</time>
      </trkpt>
      <trkpt lat="42.60724" lon="1.7797">
        <ele>2058</ele>
        <time>2019-08-20T15:33:34Z</time>
      </trkpt>
      <trkpt lat="42.60987" lon="1.77867">
        <ele>2084</ele>
        <time>2019-08-20T15:37:14Z</time>
      </trkpt>
      <trkpt lat="42.61211" lon="1.77551">
        <ele>2154</ele>
        <time>2019-08-20T15:41:32Z</time>
      </trkpt>
      <trkpt lat="42.61532" lon="1.77096">
        <ele>2226</ele>
        <time>2019-08-20T15:47:43Z</time>
      </trkpt>
      <trkpt lat="42.61613" lon="1.76671">
        <ele>2258</ele>
        <time>2019-08-20T15:52:02Z</time>
      </trkpt>
      <trkpt lat="42.61805" lon="1.76431">
        <ele>2223</ele>
        <time>2019-08-20T15:55:31Z</time>
      </trkpt>
      <trkpt lat="42.61988" lon="1.76264">
        <ele>2231</ele>
        <time>2019-08-20T15:58:28Z</time>
      </trkpt>
      <trkpt lat="42.62167" lon="1.76034">
        <ele>2248</ele>
        <time>2019-08-20T16:01:45Z</time>
      </trkpt>
      <trkpt lat="42.62345" lon="1.75676">
        <ele>2259</ele>
        <time>2019-08-20T16:05:59Z</time>
      </trkpt>
      <trkpt lat="42.62421" lon="1.75354">
        <ele>2266</ele>
        <time>2019-08-20T16:09:19Z</time>
      </trkpt>
      <trkpt lat="42.6235" lon="1.74899">
        <ele>2308</ele>
        <time>2019-08-20T16:13:53Z</time>
      </trkpt>
      <trkpt lat="42.62251" lon="1.74723">
        <ele>2303</ele>
        <time>2019-08-20T16:16:03Z</time>
      </trkpt>
      <trkpt lat="42.61992" lon="1.74413">
        <ele>2344</ele>
        <time>2019-08-20T16:20:39Z</time>
      </trkpt>
      <trkpt lat="42.61858" lon="1.74328">
        <ele>2386</ele>
        <time>2019-08-20T16:22:38Z</time>
      </trkpt>
      <trkpt lat="42.6172" lon="1.74164">
        <ele>2380</ele>
        <time>2019-08-20T16:25:05Z</time>
      </trkpt>
      <trkpt lat="42.61608" lon="1.73946">
        <ele>2420</ele>
        <time>2019-08-20T16:27:41Z</time>
      </trkpt>
      <trkpt lat="42.61492" lon="1.7363">
        <ele>2544</ele>
        <time>2019-08-20T16:31:09Z</time>
      </trkpt>
    </trkseg>
  </trk>
</gpx>